createdAt,value
2023-02-22T00:00:46.210Z,-0.95
2023-02-22T00:03:25.371Z,-0.93
2023-02-22T00:06:02.493Z,-1.07
2023-02-22T00:08:31.369Z,-0.96
2023-02-22T00:10:58.773Z,-1.13
2023-02-22T00:13:29.183Z,-1.33
2023-02-22T00:16:00.031Z,-1.09
2023-02-22T00:18:28.848Z,-1.02
2023-02-22T00:21:00.699Z,-1.03
2023-02-22T00:23:29.741Z,-1.20
2023-02-22T00:25:57.530Z,-0.96
2023-02-22T00:28:26.928Z,-1.02
2023-02-22T00:30:54.749Z,-1.15
2023-02-22T00:33:21.437Z,-1.03
2023-02-22T00:35:47.827Z,-1.03
2023-02-22T00:38:17.730Z,-0.77
2023-02-22T00:40:45.390Z,-0.54
2023-02-22T00:43:11.859Z,-0.83
2023-02-22T00:45:38.295Z,-0.99
2023-02-22T00:48:06.056Z,-0.93
2023-02-22T00:50:33.525Z,-0.83
2023-02-22T00:53:01.945Z,-0.82
2023-02-22T00:55:32.830Z,-1.06
2023-02-22T00:58:03.313Z,-1.02
2023-02-22T01:00:37.272Z,-1.01
2023-02-22T01:03:10.640Z,-1.06
2023-02-22T01:05:40.858Z,-1.05
2023-02-22T01:08:12.168Z,-1.07
2023-02-22T01:10:39.421Z,-1.18
2023-02-22T01:13:12.118Z,-1.18
2023-02-22T01:15:41.551Z,-1.27
2023-02-22T01:18:08.327Z,-1.55
2023-02-22T01:20:35.460Z,-1.31
2023-02-22T01:23:03.826Z,-1.36
2023-02-22T01:25:31.388Z,-1.39
2023-02-22T01:27:59.816Z,-1.49
2023-02-22T01:30:28.896Z,-1.61
2023-02-22T01:32:55.776Z,-1.42
2023-02-22T01:35:25.883Z,-1.44
2023-02-22T01:37:52.290Z,-1.62
2023-02-22T01:40:22.528Z,-1.72
2023-02-22T01:42:53.243Z,-1.49
2023-02-22T01:45:32.698Z,-1.45
2023-02-22T01:48:05.136Z,-1.49
2023-02-22T01:50:35.174Z,-1.59
2023-02-22T01:53:02.127Z,-1.71
2023-02-22T01:55:29.091Z,-1.73
2023-02-22T01:57:55.610Z,-1.79
2023-02-22T02:00:24.304Z,-1.76
2023-02-22T02:03:04.817Z,-1.94
2023-02-22T02:05:33.066Z,-1.83
2023-02-22T02:08:14.497Z,-1.93
2023-02-22T02:10:42.753Z,-1.76
2023-02-22T02:13:10.078Z,-2.06
2023-02-22T02:15:37.016Z,-2.24
2023-02-22T02:18:11.111Z,-2.18
2023-02-22T02:20:56.600Z,-2.01
2023-02-22T02:23:54.935Z,-2.03
2023-02-22T02:26:59.108Z,-2.22
2023-02-22T02:29:28.358Z,-2.23
2023-02-22T02:32:28.064Z,-2.09
2023-02-22T02:35:26.331Z,-2.32
2023-02-22T02:38:01.849Z,-2.16
2023-02-22T02:40:56.152Z,-2.16
2023-02-22T02:43:37.890Z,-2.23
2023-02-22T02:46:10.104Z,-2.31
2023-02-22T02:48:40.834Z,-2.35
2023-02-22T02:51:09.202Z,-2.28
2023-02-22T02:53:40.983Z,-2.51
2023-02-22T02:56:07.901Z,-2.39
2023-02-22T02:58:34.403Z,-2.49
2023-02-22T03:01:04.467Z,-2.38
2023-02-22T03:03:51.048Z,-2.55
2023-02-22T03:06:57.343Z,-2.43
2023-02-22T03:09:59.120Z,-2.40
2023-02-22T03:12:38.519Z,-2.50
2023-02-22T03:15:34.952Z,-2.33
2023-02-22T03:18:17.612Z,-2.42
2023-02-22T03:21:23.593Z,-2.70
2023-02-22T03:23:55.657Z,-2.49
2023-02-22T03:26:38.215Z,-2.53
2023-02-22T03:29:07.863Z,-2.58
2023-02-22T03:31:40.314Z,-2.69
2023-02-22T03:34:15.507Z,-2.69
2023-02-22T03:36:50.002Z,-2.48
2023-02-22T03:39:20.247Z,-2.68
2023-02-22T03:41:51.339Z,-2.55
2023-02-22T03:44:24.630Z,-2.51
2023-02-22T03:46:53.430Z,-2.78
2023-02-22T03:49:32.193Z,-2.82
2023-02-22T03:51:59.511Z,-2.80
2023-02-22T03:54:27.391Z,-2.74
2023-02-22T03:57:15.868Z,-3.03
2023-02-22T03:59:43.200Z,-3.01
2023-02-22T04:02:09.627Z,-3.02
2023-02-22T04:04:36.071Z,-2.75
2023-02-22T04:07:02.724Z,-2.95
2023-02-22T04:09:29.164Z,-2.82
2023-02-22T04:11:55.576Z,-2.83
2023-02-22T04:14:23.771Z,-2.95
2023-02-22T04:16:50.645Z,-3.05
2023-02-22T04:19:17.100Z,-3.05
2023-02-22T04:21:43.476Z,-2.99
2023-02-22T04:24:09.848Z,-3.06
2023-02-22T04:26:36.228Z,-3.09
2023-02-22T04:29:04.184Z,-3.06
2023-02-22T04:31:31.580Z,-3.12
2023-02-22T04:33:58.017Z,-3.05
2023-02-22T04:36:24.389Z,-3.10
2023-02-22T04:38:50.797Z,-3.16
2023-02-22T04:41:19.013Z,-2.90
2023-02-22T04:43:46.472Z,-2.97
2023-02-22T04:46:13.549Z,-2.98
2023-02-22T04:48:40.010Z,-3.29
2023-02-22T04:51:06.715Z,-3.11
2023-02-22T04:53:33.093Z,-3.49
2023-02-22T04:55:59.571Z,-3.13
2023-02-22T04:58:25.988Z,-3.39
2023-02-22T05:00:52.961Z,-3.34
2023-02-22T05:03:19.568Z,-3.42
2023-02-22T05:05:45.923Z,-3.22
2023-02-22T05:08:12.290Z,-3.27
2023-02-22T05:10:39.669Z,-3.26
2023-02-22T05:13:06.151Z,-3.31
2023-02-22T05:15:32.629Z,-3.37
2023-02-22T05:17:59.005Z,-3.32
2023-02-22T05:20:31.716Z,-3.17
2023-02-22T05:22:59.735Z,-3.16
2023-02-22T05:25:26.819Z,-3.19
2023-02-22T05:27:55.517Z,-3.20
2023-02-22T05:30:33.768Z,-3.31
2023-02-22T05:33:00.908Z,-3.33
2023-02-22T05:35:28.000Z,-3.29
2023-02-22T05:37:55.239Z,-3.42
2023-02-22T05:40:25.195Z,-3.36
2023-02-22T05:42:53.231Z,-3.52
2023-02-22T05:45:22.532Z,-3.32
2023-02-22T05:47:50.235Z,-3.32
2023-02-22T05:50:18.075Z,-3.51
2023-02-22T05:52:46.328Z,-3.53
2023-02-22T05:55:14.416Z,-3.44
2023-02-22T05:57:40.817Z,-3.52
2023-02-22T06:00:09.150Z,-3.41
2023-02-22T06:02:35.525Z,-3.54
2023-02-22T06:05:01.887Z,-3.55
2023-02-22T06:07:28.241Z,-3.48
2023-02-22T06:09:55.923Z,-3.54
2023-02-22T06:12:22.332Z,-3.31
2023-02-22T06:14:48.733Z,-3.28
2023-02-22T06:17:15.815Z,-3.28
2023-02-22T06:19:42.267Z,-3.47
2023-02-22T06:22:08.831Z,-3.53
2023-02-22T06:24:38.534Z,-3.41
2023-02-22T06:27:04.901Z,-3.53
2023-02-22T06:29:32.784Z,-3.47
2023-02-22T06:31:59.282Z,-3.56
2023-02-22T06:34:25.730Z,-3.55
2023-02-22T06:36:53.136Z,-3.37
2023-02-22T06:39:19.535Z,-3.36
2023-02-22T06:41:47.173Z,-3.19
2023-02-22T06:44:15.343Z,-3.21
2023-02-22T06:46:49.153Z,-3.22
2023-02-22T06:49:15.547Z,-3.25
2023-02-22T06:51:42.037Z,-3.18
2023-02-22T06:54:08.807Z,-3.05
2023-02-22T06:56:35.288Z,-3.11
2023-02-22T06:59:04.390Z,-3.05
2023-02-22T07:01:31.099Z,-2.81
2023-02-22T07:03:57.580Z,-2.83
2023-02-22T07:06:23.940Z,-2.68
2023-02-22T07:08:50.318Z,-2.58
2023-02-22T07:11:18.014Z,-3.15
2023-02-22T07:13:45.694Z,-2.52
2023-02-22T07:16:12.160Z,-2.48
2023-02-22T07:18:38.654Z,-2.39
2023-02-22T07:21:05.371Z,-2.16
2023-02-22T07:23:31.755Z,-2.13
2023-02-22T07:26:00.896Z,-1.90
2023-02-22T07:28:27.269Z,-1.96
2023-02-22T07:30:53.656Z,-1.71
2023-02-22T07:33:20.070Z,-1.69
2023-02-22T07:35:48.470Z,-1.59
2023-02-22T07:38:18.096Z,-1.34
2023-02-22T07:40:44.969Z,-1.19
2023-02-22T07:43:20.855Z,-1.07
2023-02-22T07:45:49.315Z,-0.96
2023-02-22T07:48:17.799Z,-0.83
2023-02-22T07:50:44.349Z,-0.61
2023-02-22T07:53:24.359Z,-0.82
2023-02-22T07:55:51.805Z,-0.28
2023-02-22T07:58:21.107Z,-0.21
2023-02-22T08:00:48.432Z,-0.21
2023-02-22T08:03:16.681Z,0.05
2023-02-22T08:05:46.981Z,0.17
2023-02-22T08:08:19.675Z,0.21
2023-02-22T08:10:47.077Z,-0.11
2023-02-22T08:13:13.453Z,0.28
2023-02-22T08:15:41.606Z,0.29
2023-02-22T08:18:11.399Z,0.57
2023-02-22T08:20:40.770Z,0.68
2023-02-22T08:23:08.244Z,0.60
2023-02-22T08:25:35.211Z,0.87
2023-02-22T08:28:06.900Z,1.01
2023-02-22T08:30:35.050Z,1.22
2023-02-22T08:33:03.059Z,1.35
2023-02-22T08:35:31.639Z,1.50
2023-02-22T08:38:01.231Z,1.68
2023-02-22T08:40:31.105Z,1.88
2023-02-22T08:42:57.740Z,2.02
2023-02-22T08:45:24.268Z,2.18
2023-02-22T08:47:50.733Z,2.17
2023-02-22T08:50:23.568Z,2.45
2023-02-22T08:52:59.236Z,2.74
2023-02-22T08:55:32.518Z,3.04
2023-02-22T08:58:01.356Z,2.95
2023-02-22T09:00:29.537Z,3.01
2023-02-22T09:02:56.102Z,3.17
2023-02-22T09:05:22.539Z,3.48
2023-02-22T09:07:49.078Z,3.52
2023-02-22T09:10:18.383Z,4.00
2023-02-22T09:12:44.808Z,4.09
2023-02-22T09:15:12.310Z,4.06
2023-02-22T09:17:39.654Z,4.38
2023-02-22T09:20:08.491Z,4.44
2023-02-22T09:22:35.857Z,4.66
2023-02-22T09:25:11.208Z,4.95
2023-02-22T09:27:43.567Z,5.05
2023-02-22T09:30:24.735Z,5.40
2023-02-22T09:32:56.320Z,5.61
2023-02-22T09:35:29.263Z,5.78
2023-02-22T09:37:57.018Z,6.00
2023-02-22T09:40:25.775Z,6.19
2023-02-22T09:43:14.053Z,6.31
2023-02-22T09:45:45.045Z,6.42
2023-02-22T09:48:21.742Z,6.51
2023-02-22T09:50:51.657Z,6.56
2023-02-22T09:53:31.612Z,6.83
2023-02-22T09:56:06.831Z,6.99
2023-02-22T09:58:36.760Z,6.96
2023-02-22T10:01:14.431Z,7.42
2023-02-22T10:04:14.034Z,7.50
2023-02-22T10:06:52.528Z,7.57
2023-02-22T10:09:19.019Z,7.87
2023-02-22T10:12:09.750Z,8.20
2023-02-22T10:15:07.205Z,8.28
2023-02-22T10:17:39.392Z,8.33
2023-02-22T10:20:28.540Z,8.61
2023-02-22T10:23:19.787Z,8.46
2023-02-22T10:25:55.712Z,8.64
2023-02-22T10:28:39.090Z,8.82
2023-02-22T10:31:15.737Z,8.78
2023-02-22T10:33:47.707Z,8.61
2023-02-22T10:36:23.707Z,9.01
2023-02-22T10:39:30.642Z,9.24
2023-02-22T10:42:05.848Z,9.02
2023-02-22T10:44:37.475Z,9.22
2023-02-22T10:47:08.111Z,9.20
2023-02-22T10:49:39.821Z,9.60
2023-02-22T10:52:22.011Z,9.53
2023-02-22T10:54:51.832Z,9.51
2023-02-22T10:57:25.613Z,9.81
2023-02-22T10:59:52.494Z,9.53
2023-02-22T11:02:24.657Z,10.05
2023-02-22T11:04:54.143Z,10.17
2023-02-22T11:07:38.649Z,10.13
2023-02-22T11:10:09.521Z,10.41
2023-02-22T11:12:48.481Z,10.30
2023-02-22T11:15:17.593Z,10.35
2023-02-22T11:17:46.294Z,10.30
2023-02-22T11:20:25.254Z,10.46
2023-02-22T11:22:58.322Z,10.61
2023-02-22T11:25:30.343Z,10.71
2023-02-22T11:28:08.268Z,10.60
2023-02-22T11:30:36.098Z,10.63
2023-02-22T11:33:24.464Z,10.95
2023-02-22T11:35:52.889Z,11.04
2023-02-22T11:38:40.353Z,11.27
2023-02-22T11:41:15.248Z,11.35
2023-02-22T11:43:43.525Z,11.19
2023-02-22T11:46:13.905Z,11.19
2023-02-22T11:48:53.880Z,11.15
2023-02-22T11:51:57.249Z,11.34
2023-02-22T11:54:47.422Z,11.43
2023-02-22T11:57:30.336Z,11.48
2023-02-22T12:00:16.173Z,11.60
2023-02-22T12:03:26.500Z,11.78
2023-02-22T12:06:06.615Z,11.90
2023-02-22T12:09:02.795Z,11.98
2023-02-22T12:11:40.469Z,11.86
2023-02-22T12:14:12.901Z,11.98
2023-02-22T12:16:54.803Z,11.90
2023-02-22T12:19:30.899Z,11.97
2023-02-22T12:22:02.293Z,11.96
2023-02-22T12:25:00.761Z,12.14
2023-02-22T12:27:41.048Z,12.29
2023-02-22T12:30:36.289Z,12.56
2023-02-22T12:33:14.056Z,12.34
2023-02-22T12:35:46.114Z,12.35
2023-02-22T12:38:23.412Z,12.55
2023-02-22T12:41:03.951Z,12.39
2023-02-22T12:43:38.911Z,12.29
2023-02-22T12:46:13.587Z,12.60
2023-02-22T12:48:54.257Z,12.75
2023-02-22T12:51:51.573Z,12.82
2023-02-22T12:54:46.429Z,13.05
2023-02-22T12:57:36.148Z,13.25
2023-02-22T13:00:17.129Z,13.25
2023-02-22T13:02:45.448Z,13.11
2023-02-22T13:05:17.869Z,13.21
2023-02-22T13:07:59.313Z,13.21
2023-02-22T13:10:53.632Z,13.21
2023-02-22T13:13:33.348Z,13.34
2023-02-22T13:16:21.735Z,13.80
2023-02-22T13:19:07.951Z,13.75
2023-02-22T13:21:55.453Z,13.89
2023-02-22T13:24:30.291Z,14.01
2023-02-22T13:27:01.779Z,14.09
2023-02-22T13:29:47.254Z,14.43
2023-02-22T13:32:28.696Z,14.40
2023-02-22T13:35:20.968Z,14.61
2023-02-22T13:37:59.627Z,14.95
2023-02-22T13:40:42.462Z,14.46
2023-02-22T13:43:42.409Z,13.99
2023-02-22T13:46:19.030Z,14.08
2023-02-22T13:49:10.575Z,14.05
2023-02-22T13:51:52.668Z,13.98
2023-02-22T13:54:44.943Z,13.90
2023-02-22T13:57:20.861Z,13.58
2023-02-22T13:59:47.404Z,13.43
2023-02-22T14:02:52.491Z,13.57
2023-02-22T14:05:41.521Z,13.88
2023-02-22T14:08:27.842Z,13.90
2023-02-22T14:10:56.334Z,13.53
2023-02-22T14:13:27.552Z,13.35
2023-02-22T14:16:19.198Z,13.78
2023-02-22T14:19:00.002Z,13.88
2023-02-22T14:21:26.566Z,13.47
2023-02-22T14:23:54.279Z,13.46
2023-02-22T14:26:31.158Z,14.08
2023-02-22T14:29:07.786Z,14.24
2023-02-22T14:31:40.477Z,14.35
2023-02-22T14:34:17.487Z,14.54
2023-02-22T14:36:56.232Z,14.25
2023-02-22T14:39:51.006Z,14.26
2023-02-22T14:42:34.500Z,13.86
2023-02-22T14:45:26.907Z,13.55
2023-02-22T14:48:20.329Z,13.52
2023-02-22T14:51:29.101Z,13.66
2023-02-22T14:54:18.637Z,13.78
2023-02-22T14:57:00.505Z,13.97
2023-02-22T14:59:30.749Z,13.42
2023-02-22T15:02:12.440Z,13.53
2023-02-22T15:04:43.764Z,13.80
2023-02-22T15:07:27.910Z,13.98
2023-02-22T15:10:17.782Z,13.90
2023-02-22T15:13:08.536Z,13.90
2023-02-22T15:15:40.854Z,14.00
2023-02-22T15:18:17.674Z,14.21
2023-02-22T15:20:48.302Z,14.00
2023-02-22T15:23:16.704Z,13.63
2023-02-22T15:25:49.451Z,13.81
2023-02-22T15:28:18.536Z,14.13
2023-02-22T15:30:45.066Z,13.62
2023-02-22T15:33:24.683Z,13.28
2023-02-22T15:35:55.989Z,13.23
2023-02-22T15:38:28.889Z,12.72
2023-02-22T15:41:13.548Z,13.17
2023-02-22T15:43:41.019Z,12.90
2023-02-22T15:46:09.445Z,12.87
2023-02-22T15:48:37.229Z,12.49
2023-02-22T15:51:09.856Z,12.16
2023-02-22T15:53:42.105Z,12.26
2023-02-22T15:56:25.743Z,12.33
2023-02-22T15:59:15.183Z,12.17
2023-02-22T16:01:45.033Z,11.59
2023-02-22T16:04:21.060Z,11.75
2023-02-22T16:06:52.102Z,11.79
2023-02-22T16:09:30.285Z,11.76
2023-02-22T16:12:28.130Z,11.82
2023-02-22T16:14:59.568Z,11.70
2023-02-22T16:17:49.485Z,11.66
2023-02-22T16:20:22.894Z,11.75
2023-02-22T16:22:49.772Z,11.67
2023-02-22T16:25:19.146Z,11.65
2023-02-22T16:27:49.409Z,11.66
2023-02-22T16:30:25.264Z,11.21
2023-02-22T16:32:56.397Z,11.20
2023-02-22T16:35:28.735Z,10.75
2023-02-22T16:38:05.791Z,10.60
2023-02-22T16:40:39.671Z,10.48
2023-02-22T16:43:16.975Z,10.01
2023-02-22T16:45:46.255Z,9.80
2023-02-22T16:48:33.229Z,9.61
2023-02-22T16:51:02.178Z,9.76
2023-02-22T16:53:38.644Z,9.32
2023-02-22T16:56:08.246Z,9.23
2023-02-22T16:58:39.220Z,9.27
2023-02-22T17:01:05.999Z,8.83
2023-02-22T17:03:32.416Z,8.35
2023-02-22T17:06:01.215Z,8.97
2023-02-22T17:08:30.591Z,8.67
2023-02-22T17:11:00.608Z,8.82
2023-02-22T17:13:27.938Z,8.68
2023-02-22T17:15:55.276Z,8.25
2023-02-22T17:18:23.935Z,8.11
2023-02-22T17:20:51.810Z,8.16
2023-02-22T17:23:20.121Z,8.34
2023-02-22T17:25:59.201Z,8.01
2023-02-22T17:28:26.855Z,7.73
2023-02-22T17:30:55.190Z,7.32
2023-02-22T17:33:27.074Z,7.18
2023-02-22T17:35:55.637Z,7.18
2023-02-22T17:38:22.819Z,6.77
2023-02-22T17:40:51.926Z,6.71
2023-02-22T17:43:19.364Z,6.74
2023-02-22T17:45:46.655Z,6.62
2023-02-22T17:48:14.737Z,6.10
2023-02-22T17:50:43.584Z,6.84
2023-02-22T17:53:13.286Z,6.65
2023-02-22T17:55:41.985Z,6.60
2023-02-22T17:58:14.545Z,6.85
2023-02-22T18:00:46.407Z,6.86
2023-02-22T18:03:21.410Z,6.92
2023-02-22T18:05:50.715Z,7.23
2023-02-22T18:08:17.203Z,7.35
2023-02-22T18:10:44.718Z,7.42
2023-02-22T18:13:19.250Z,7.26
2023-02-22T18:15:46.358Z,7.01
2023-02-22T18:18:13.154Z,7.17
2023-02-22T18:20:46.392Z,6.74
2023-02-22T18:23:16.755Z,6.74
2023-02-22T18:26:00.272Z,6.64
2023-02-22T18:28:35.321Z,6.68
2023-02-22T18:31:07.555Z,6.52
2023-02-22T18:33:35.419Z,6.26
2023-02-22T18:36:01.839Z,5.85
2023-02-22T18:38:28.214Z,6.34
2023-02-22T18:41:02.515Z,6.05
2023-02-22T18:43:36.854Z,5.94
2023-02-22T18:46:18.203Z,6.21
2023-02-22T18:48:47.751Z,6.03
2023-02-22T18:51:16.988Z,6.11
2023-02-22T18:53:47.068Z,5.73
2023-02-22T18:56:17.853Z,5.71
2023-02-22T18:58:44.543Z,5.47
2023-02-22T19:01:18.547Z,5.71
2023-02-22T19:03:47.146Z,5.65
2023-02-22T19:06:16.570Z,5.43
2023-02-22T19:08:43.579Z,5.73
2023-02-22T19:11:17.589Z,5.69
2023-02-22T19:13:48.299Z,5.49
2023-02-22T19:16:19.708Z,5.52
2023-02-22T19:18:52.514Z,5.90
2023-02-22T19:21:23.061Z,5.83
2023-02-22T19:23:50.364Z,5.82
2023-02-22T19:26:19.984Z,5.63
2023-02-22T19:28:47.294Z,5.61
2023-02-22T19:31:14.802Z,5.49
2023-02-22T19:33:42.531Z,5.36
2023-02-22T19:36:10.214Z,5.36
2023-02-22T19:38:36.967Z,5.32
2023-02-22T19:41:12.405Z,5.29
2023-02-22T19:43:39.072Z,5.25
2023-02-22T19:46:06.761Z,5.28
2023-02-22T19:48:33.803Z,5.43
2023-02-22T19:51:06.187Z,5.42
2023-02-22T19:53:34.111Z,5.16
2023-02-22T19:56:09.495Z,5.33
2023-02-22T19:58:37.690Z,5.43
2023-02-22T20:01:16.088Z,5.64
2023-02-22T20:03:42.818Z,5.60
2023-02-22T20:06:15.900Z,5.36
2023-02-22T20:08:42.419Z,5.45
2023-02-22T20:11:10.477Z,5.48
2023-02-22T20:13:38.422Z,5.70
2023-02-22T20:16:05.420Z,5.54
2023-02-22T20:18:33.056Z,5.81
2023-02-22T20:20:59.608Z,5.68
2023-02-22T20:23:27.096Z,5.31
2023-02-22T20:25:55.513Z,5.26
2023-02-22T20:28:23.712Z,5.33
2023-02-22T20:30:51.545Z,5.48
2023-02-22T20:33:19.036Z,5.57
2023-02-22T20:35:46.695Z,5.92
2023-02-22T20:38:14.476Z,5.84
2023-02-22T20:40:42.528Z,5.98
2023-02-22T20:43:09.719Z,5.81
2023-02-22T20:45:39.677Z,5.85
2023-02-22T20:48:06.213Z,5.84
2023-02-22T20:50:34.917Z,5.56
2023-02-22T20:53:01.370Z,5.76
2023-02-22T20:55:27.732Z,5.83
2023-02-22T20:57:54.169Z,5.52
2023-02-22T21:00:20.662Z,5.53
2023-02-22T21:02:47.079Z,5.40
2023-02-22T21:05:13.901Z,5.36
2023-02-22T21:07:40.424Z,5.28
2023-02-22T21:10:07.124Z,5.72
2023-02-22T21:12:35.055Z,5.83
2023-02-22T21:15:01.751Z,5.55
2023-02-22T21:17:30.964Z,5.71
2023-02-22T21:19:58.367Z,5.74
2023-02-22T21:22:25.218Z,5.97
2023-02-22T21:24:51.948Z,5.84
2023-02-22T21:27:18.311Z,5.77
2023-02-22T21:29:44.707Z,5.81
2023-02-22T21:32:12.700Z,5.90
2023-02-22T21:34:39.377Z,6.13
2023-02-22T21:37:08.207Z,6.05
2023-02-22T21:39:35.308Z,6.32
2023-02-22T21:42:02.395Z,6.31
2023-02-22T21:44:29.408Z,6.16
2023-02-22T21:46:57.273Z,6.39
2023-02-22T21:49:23.781Z,6.59
2023-02-22T21:51:51.644Z,6.34
2023-02-22T21:54:19.121Z,6.27
2023-02-22T21:56:45.727Z,6.32
2023-02-22T21:59:15.413Z,6.60
2023-02-22T22:01:47.682Z,6.64
2023-02-22T22:04:18.805Z,6.56
2023-02-22T22:06:47.751Z,6.52
2023-02-22T22:09:18.260Z,6.35
2023-02-22T22:11:46.481Z,6.47
2023-02-22T22:14:13.567Z,6.33
2023-02-22T22:16:40.254Z,6.59
2023-02-22T22:19:07.099Z,6.50
2023-02-22T22:21:33.606Z,6.41
2023-02-22T22:24:00.494Z,6.15
2023-02-22T22:26:27.359Z,6.55
2023-02-22T22:28:57.796Z,6.74
2023-02-22T22:31:25.932Z,6.66
2023-02-22T22:33:54.307Z,6.80
2023-02-22T22:36:22.459Z,6.80
2023-02-22T22:38:50.322Z,6.68
2023-02-22T22:41:19.667Z,7.00
2023-02-22T22:43:46.736Z,6.69
2023-02-22T22:46:17.800Z,7.05
2023-02-22T22:48:46.916Z,7.02
2023-02-22T22:51:21.660Z,7.13
2023-02-22T22:53:49.649Z,7.09
2023-02-22T22:56:21.655Z,7.20
2023-02-22T22:58:54.797Z,7.37
2023-02-22T23:01:27.816Z,7.25
2023-02-22T23:04:01.314Z,7.23
2023-02-22T23:06:32.705Z,7.29
2023-02-22T23:09:13.150Z,7.50
2023-02-22T23:11:45.898Z,7.37
2023-02-22T23:14:20.763Z,7.30
2023-02-22T23:16:52.539Z,7.22
2023-02-22T23:19:19.650Z,7.27
2023-02-22T23:21:48.663Z,7.50
2023-02-22T23:24:17.598Z,7.31
2023-02-22T23:26:48.711Z,7.40
2023-02-22T23:29:20.129Z,7.61
2023-02-22T23:31:48.516Z,7.48
2023-02-22T23:34:17.245Z,7.52
2023-02-22T23:36:49.573Z,7.47
2023-02-22T23:39:21.816Z,7.72
2023-02-22T23:41:59.128Z,7.61
2023-02-22T23:44:27.107Z,7.68
2023-02-22T23:46:55.621Z,7.83
2023-02-22T23:49:25.082Z,7.70
2023-02-22T23:51:52.537Z,7.64
2023-02-22T23:54:20.902Z,7.86
2023-02-22T23:56:57.681Z,7.93
2023-02-22T23:59:27.227Z,7.75
